sensor_id;sensor_type;location;lat;lon;timestamp;temperature;humidity
12089;DHT22;6107;49.078;8.578;2024-02-21T00:01:56;8.40;99.90
12089;DHT22;6107;49.078;8.578;2024-02-21T00:04:21;8.50;99.90
12089;DHT22;6107;49.078;8.578;2024-02-21T00:06:47;8.50;99.90
12089;DHT22;6107;49.078;8.578;2024-02-21T00:09:12;8.50;99.90
12089;DHT22;6107;49.078;8.578;2024-02-21T00:11:38;8.50;99.90
12089;DHT22;6107;49.078;8.578;2024-02-21T00:14:04;8.50;99.90
12089;DHT22;6107;49.078;8.578;2024-02-21T00:16:29;8.50;99.90
12089;DHT22;6107;49.078;8.578;2024-02-21T00:18:55;8.50;99.90
12089;DHT22;6107;49.078;8.578;2024-02-21T00:21:20;8.50;99.90
12089;DHT22;6107;49.078;8.578;2024-02-21T00:23:46;8.50;99.90
12089;DHT22;6107;49.078;8.578;2024-02-21T00:26:12;8.60;99.90
12089;DHT22;6107;49.078;8.578;2024-02-21T00:28:39;8.60;99.90
12089;DHT22;6107;49.078;8.578;2024-02-21T00:31:04;8.60;99.90
12089;DHT22;6107;49.078;8.578;2024-02-21T00:33:30;8.50;99.90
12089;DHT22;6107;49.078;8.578;2024-02-21T00:35:56;8.50;99.90
12089;DHT22;6107;49.078;8.578;2024-02-21T00:38:21;8.50;99.90
12089;DHT22;6107;49.078;8.578;2024-02-21T00:40:47;8.60;99.90
12089;DHT22;6107;49.078;8.578;2024-02-21T00:43:12;8.50;99.90
12089;DHT22;6107;49.078;8.578;2024-02-21T00:45:38;8.50;99.90
12089;DHT22;6107;49.078;8.578;2024-02-21T00:48:04;8.50;99.90
12089;DHT22;6107;49.078;8.578;2024-02-21T00:50:30;8.50;99.90
12089;DHT22;6107;49.078;8.578;2024-02-21T00:52:56;8.50;99.90
12089;DHT22;6107;49.078;8.578;2024-02-21T00:55:21;8.50;99.90
12089;DHT22;6107;49.078;8.578;2024-02-21T00:57:47;8.50;99.90
12089;DHT22;6107;49.078;8.578;2024-02-21T01:00:13;8.50;99.90
12089;DHT22;6107;49.078;8.578;2024-02-21T01:02:39;8.40;99.90
12089;DHT22;6107;49.078;8.578;2024-02-21T01:05:04;8.40;99.90
12089;DHT22;6107;49.078;8.578;2024-02-21T01:07:30;8.50;99.90
12089;DHT22;6107;49.078;8.578;2024-02-21T01:09:56;8.40;99.90
12089;DHT22;6107;49.078;8.578;2024-02-21T01:12:22;8.40;99.90
12089;DHT22;6107;49.078;8.578;2024-02-21T01:14:47;8.40;99.90
12089;DHT22;6107;49.078;8.578;2024-02-21T01:17:14;8.40;99.90
12089;DHT22;6107;49.078;8.578;2024-02-21T01:19:40;8.40;99.90
12089;DHT22;6107;49.078;8.578;2024-02-21T01:22:06;8.50;99.90
12089;DHT22;6107;49.078;8.578;2024-02-21T01:24:31;8.40;99.90
12089;DHT22;6107;49.078;8.578;2024-02-21T01:26:57;8.30;99.90
12089;DHT22;6107;49.078;8.578;2024-02-21T01:29:22;8.20;99.90
12089;DHT22;6107;49.078;8.578;2024-02-21T01:31:48;8.20;99.90
12089;DHT22;6107;49.078;8.578;2024-02-21T01:34:14;8.20;99.90
12089;DHT22;6107;49.078;8.578;2024-02-21T01:36:39;8.10;99.90
12089;DHT22;6107;49.078;8.578;2024-02-21T01:39:06;8.10;99.90
12089;DHT22;6107;49.078;8.578;2024-02-21T01:41:32;8.00;99.90
12089;DHT22;6107;49.078;8.578;2024-02-21T01:43:58;8.00;99.90
12089;DHT22;6107;49.078;8.578;2024-02-21T01:46:24;8.00;99.90
12089;DHT22;6107;49.078;8.578;2024-02-21T01:48:57;8.10;99.90
12089;DHT22;6107;49.078;8.578;2024-02-21T01:51:26;8.20;99.90
12089;DHT22;6107;49.078;8.578;2024-02-21T01:53:53;8.10;99.90
12089;DHT22;6107;49.078;8.578;2024-02-21T01:56:20;8.10;99.90
12089;DHT22;6107;49.078;8.578;2024-02-21T01:58:48;8.10;99.90
12089;DHT22;6107;49.078;8.578;2024-02-21T02:01:14;8.10;99.90
12089;DHT22;6107;49.078;8.578;2024-02-21T02:03:40;8.10;99.90
12089;DHT22;6107;49.078;8.578;2024-02-21T02:06:06;8.10;99.90
12089;DHT22;6107;49.078;8.578;2024-02-21T02:08:32;8.10;99.90
12089;DHT22;6107;49.078;8.578;2024-02-21T02:10:58;8.20;99.90
12089;DHT22;6107;49.078;8.578;2024-02-21T02:13:24;8.20;99.90
12089;DHT22;6107;49.078;8.578;2024-02-21T02:15:50;8.10;99.90
12089;DHT22;6107;49.078;8.578;2024-02-21T02:18:17;8.10;99.90
12089;DHT22;6107;49.078;8.578;2024-02-21T02:20:44;8.10;99.90
12089;DHT22;6107;49.078;8.578;2024-02-21T02:23:12;8.10;99.90
12089;DHT22;6107;49.078;8.578;2024-02-21T02:25:40;8.10;99.90
12089;DHT22;6107;49.078;8.578;2024-02-21T02:28:08;8.10;99.90
12089;DHT22;6107;49.078;8.578;2024-02-21T02:30:35;8.10;99.90
12089;DHT22;6107;49.078;8.578;2024-02-21T02:33:05;8.20;99.90
12089;DHT22;6107;49.078;8.578;2024-02-21T02:35:32;8.20;99.90
12089;DHT22;6107;49.078;8.578;2024-02-21T02:37:58;8.20;99.90
12089;DHT22;6107;49.078;8.578;2024-02-21T02:40:24;8.10;99.90
12089;DHT22;6107;49.078;8.578;2024-02-21T02:42:50;8.10;99.90
12089;DHT22;6107;49.078;8.578;2024-02-21T02:45:17;8.10;99.90
12089;DHT22;6107;49.078;8.578;2024-02-21T02:47:45;8.10;99.90
12089;DHT22;6107;49.078;8.578;2024-02-21T02:50:11;8.10;99.90
12089;DHT22;6107;49.078;8.578;2024-02-21T02:52:37;8.10;99.90
12089;DHT22;6107;49.078;8.578;2024-02-21T02:55:04;8.10;99.90
12089;DHT22;6107;49.078;8.578;2024-02-21T02:57:30;8.10;99.90
12089;DHT22;6107;49.078;8.578;2024-02-21T02:59:56;8.10;99.90
12089;DHT22;6107;49.078;8.578;2024-02-21T03:02:21;8.10;99.90
12089;DHT22;6107;49.078;8.578;2024-02-21T03:04:47;8.20;99.90
12089;DHT22;6107;49.078;8.578;2024-02-21T03:07:14;8.20;99.90
12089;DHT22;6107;49.078;8.578;2024-02-21T03:09:40;8.20;99.90
12089;DHT22;6107;49.078;8.578;2024-02-21T03:12:06;8.10;99.90
12089;DHT22;6107;49.078;8.578;2024-02-21T03:14:32;8.20;99.90
12089;DHT22;6107;49.078;8.578;2024-02-21T03:16:59;8.20;99.90
12089;DHT22;6107;49.078;8.578;2024-02-21T03:19:24;8.10;99.90
12089;DHT22;6107;49.078;8.578;2024-02-21T03:21:51;8.20;99.90
12089;DHT22;6107;49.078;8.578;2024-02-21T03:24:17;8.20;99.90
12089;DHT22;6107;49.078;8.578;2024-02-21T03:26:42;8.10;99.90
12089;DHT22;6107;49.078;8.578;2024-02-21T03:29:09;8.00;99.90
12089;DHT22;6107;49.078;8.578;2024-02-21T03:31:35;8.10;99.90
12089;DHT22;6107;49.078;8.578;2024-02-21T03:34:00;8.00;99.90
12089;DHT22;6107;49.078;8.578;2024-02-21T03:36:26;8.00;99.90
12089;DHT22;6107;49.078;8.578;2024-02-21T03:38:52;7.90;99.90
12089;DHT22;6107;49.078;8.578;2024-02-21T03:41:17;7.90;99.90
12089;DHT22;6107;49.078;8.578;2024-02-21T03:43:43;7.80;99.90
12089;DHT22;6107;49.078;8.578;2024-02-21T03:46:08;7.80;99.90
12089;DHT22;6107;49.078;8.578;2024-02-21T03:48:35;7.90;99.90
12089;DHT22;6107;49.078;8.578;2024-02-21T03:51:01;7.90;99.90
12089;DHT22;6107;49.078;8.578;2024-02-21T03:53:26;7.80;99.90
12089;DHT22;6107;49.078;8.578;2024-02-21T03:55:52;7.90;99.90
12089;DHT22;6107;49.078;8.578;2024-02-21T03:58:17;7.80;99.90
12089;DHT22;6107;49.078;8.578;2024-02-21T04:00:43;7.70;99.90
12089;DHT22;6107;49.078;8.578;2024-02-21T04:03:09;7.50;99.90
12089;DHT22;6107;49.078;8.578;2024-02-21T04:05:34;7.50;99.90
12089;DHT22;6107;49.078;8.578;2024-02-21T04:08:00;7.60;99.90
12089;DHT22;6107;49.078;8.578;2024-02-21T04:10:28;7.60;99.90
12089;DHT22;6107;49.078;8.578;2024-02-21T04:12:54;7.70;99.90
12089;DHT22;6107;49.078;8.578;2024-02-21T04:15:19;7.70;99.90
12089;DHT22;6107;49.078;8.578;2024-02-21T04:17:45;7.60;99.90
12089;DHT22;6107;49.078;8.578;2024-02-21T04:20:14;7.60;99.90
12089;DHT22;6107;49.078;8.578;2024-02-21T04:22:41;7.50;99.90
12089;DHT22;6107;49.078;8.578;2024-02-21T04:25:07;7.60;99.90
12089;DHT22;6107;49.078;8.578;2024-02-21T04:27:32;7.60;99.90
12089;DHT22;6107;49.078;8.578;2024-02-21T04:29:59;7.60;99.90
12089;DHT22;6107;49.078;8.578;2024-02-21T04:32:24;7.60;99.90
12089;DHT22;6107;49.078;8.578;2024-02-21T04:34:52;7.50;99.90
12089;DHT22;6107;49.078;8.578;2024-02-21T04:37:18;7.50;99.90
12089;DHT22;6107;49.078;8.578;2024-02-21T04:39:44;7.40;99.90
12089;DHT22;6107;49.078;8.578;2024-02-21T04:42:10;7.50;99.90
12089;DHT22;6107;49.078;8.578;2024-02-21T04:44:36;7.50;99.90
12089;DHT22;6107;49.078;8.578;2024-02-21T04:47:01;7.50;99.90
12089;DHT22;6107;49.078;8.578;2024-02-21T04:49:29;7.50;99.90
12089;DHT22;6107;49.078;8.578;2024-02-21T04:51:54;7.50;99.90
12089;DHT22;6107;49.078;8.578;2024-02-21T04:54:20;7.50;99.90
12089;DHT22;6107;49.078;8.578;2024-02-21T04:56:46;7.50;99.90
12089;DHT22;6107;49.078;8.578;2024-02-21T04:59:11;7.50;99.90
12089;DHT22;6107;49.078;8.578;2024-02-21T05:01:37;7.50;99.90
12089;DHT22;6107;49.078;8.578;2024-02-21T05:04:02;7.50;99.90
12089;DHT22;6107;49.078;8.578;2024-02-21T05:06:28;7.60;99.90
12089;DHT22;6107;49.078;8.578;2024-02-21T05:08:54;7.60;99.90
12089;DHT22;6107;49.078;8.578;2024-02-21T05:11:21;7.50;99.90
12089;DHT22;6107;49.078;8.578;2024-02-21T05:13:47;7.50;99.90
12089;DHT22;6107;49.078;8.578;2024-02-21T05:16:12;7.50;99.90
12089;DHT22;6107;49.078;8.578;2024-02-21T05:18:38;7.50;99.90
12089;DHT22;6107;49.078;8.578;2024-02-21T05:21:05;7.40;99.90
12089;DHT22;6107;49.078;8.578;2024-02-21T05:23:30;7.40;99.90
12089;DHT22;6107;49.078;8.578;2024-02-21T05:25:56;7.20;99.90
12089;DHT22;6107;49.078;8.578;2024-02-21T05:28:22;7.20;99.90
12089;DHT22;6107;49.078;8.578;2024-02-21T05:30:47;7.20;99.90
12089;DHT22;6107;49.078;8.578;2024-02-21T05:33:13;7.20;99.90
12089;DHT22;6107;49.078;8.578;2024-02-21T05:35:46;7.30;99.90
12089;DHT22;6107;49.078;8.578;2024-02-21T05:38:12;7.20;99.90
12089;DHT22;6107;49.078;8.578;2024-02-21T05:40:37;7.20;99.90
12089;DHT22;6107;49.078;8.578;2024-02-21T05:43:03;7.10;99.90
12089;DHT22;6107;49.078;8.578;2024-02-21T05:45:29;7.10;99.90
12089;DHT22;6107;49.078;8.578;2024-02-21T05:47:54;7.10;99.90
12089;DHT22;6107;49.078;8.578;2024-02-21T05:50:20;7.00;99.90
12089;DHT22;6107;49.078;8.578;2024-02-21T05:52:47;6.90;99.90
12089;DHT22;6107;49.078;8.578;2024-02-21T05:55:13;6.90;99.90
12089;DHT22;6107;49.078;8.578;2024-02-21T05:57:40;6.80;99.90
12089;DHT22;6107;49.078;8.578;2024-02-21T06:00:06;6.90;99.90
12089;DHT22;6107;49.078;8.578;2024-02-21T06:02:32;6.90;99.90
12089;DHT22;6107;49.078;8.578;2024-02-21T06:04:57;6.80;99.90
12089;DHT22;6107;49.078;8.578;2024-02-21T06:07:23;6.60;99.90
12089;DHT22;6107;49.078;8.578;2024-02-21T06:09:49;6.70;99.90
12089;DHT22;6107;49.078;8.578;2024-02-21T06:12:14;6.60;99.90
12089;DHT22;6107;49.078;8.578;2024-02-21T06:14:40;6.10;99.90
12089;DHT22;6107;49.078;8.578;2024-02-21T06:17:05;6.10;99.90
12089;DHT22;6107;49.078;8.578;2024-02-21T06:19:31;6.00;99.90
12089;DHT22;6107;49.078;8.578;2024-02-21T06:21:57;5.90;99.90
12089;DHT22;6107;49.078;8.578;2024-02-21T06:24:22;5.80;99.90
12089;DHT22;6107;49.078;8.578;2024-02-21T06:26:48;5.70;99.90
12089;DHT22;6107;49.078;8.578;2024-02-21T06:29:13;5.80;99.90
12089;DHT22;6107;49.078;8.578;2024-02-21T06:31:40;5.90;99.90
12089;DHT22;6107;49.078;8.578;2024-02-21T06:34:06;5.90;99.90
12089;DHT22;6107;49.078;8.578;2024-02-21T06:36:31;6.00;99.90
12089;DHT22;6107;49.078;8.578;2024-02-21T06:38:58;6.20;99.90
12089;DHT22;6107;49.078;8.578;2024-02-21T06:41:23;6.50;99.90
12089;DHT22;6107;49.078;8.578;2024-02-21T06:43:49;6.60;99.90
12089;DHT22;6107;49.078;8.578;2024-02-21T06:48:50;6.70;99.90
12089;DHT22;6107;49.078;8.578;2024-02-21T06:51:16;6.60;99.90
12089;DHT22;6107;49.078;8.578;2024-02-21T06:53:42;6.60;99.90
12089;DHT22;6107;49.078;8.578;2024-02-21T06:56:09;7.40;99.90
12089;DHT22;6107;49.078;8.578;2024-02-21T06:58:35;6.90;99.90
12089;DHT22;6107;49.078;8.578;2024-02-21T07:01:01;6.90;99.90
12089;DHT22;6107;49.078;8.578;2024-02-21T07:03:27;6.60;99.90
12089;DHT22;6107;49.078;8.578;2024-02-21T07:05:53;6.50;99.90
12089;DHT22;6107;49.078;8.578;2024-02-21T07:08:18;6.30;99.90
12089;DHT22;6107;49.078;8.578;2024-02-21T07:10:44;6.40;99.90
12089;DHT22;6107;49.078;8.578;2024-02-21T07:13:09;6.40;99.90
12089;DHT22;6107;49.078;8.578;2024-02-21T07:15:35;6.60;99.90
12089;DHT22;6107;49.078;8.578;2024-02-21T07:18:02;6.40;99.90
12089;DHT22;6107;49.078;8.578;2024-02-21T07:20:27;6.60;99.90
12089;DHT22;6107;49.078;8.578;2024-02-21T07:22:54;6.70;99.90
12089;DHT22;6107;49.078;8.578;2024-02-21T07:25:19;6.70;99.90
12089;DHT22;6107;49.078;8.578;2024-02-21T07:27:45;6.70;99.90
12089;DHT22;6107;49.078;8.578;2024-02-21T07:30:11;6.80;99.90
12089;DHT22;6107;49.078;8.578;2024-02-21T07:32:37;7.00;99.90
12089;DHT22;6107;49.078;8.578;2024-02-21T07:35:02;6.90;99.90
12089;DHT22;6107;49.078;8.578;2024-02-21T07:37:28;7.00;99.90
12089;DHT22;6107;49.078;8.578;2024-02-21T07:39:54;7.00;99.90
12089;DHT22;6107;49.078;8.578;2024-02-21T07:42:19;7.00;99.90
12089;DHT22;6107;49.078;8.578;2024-02-21T07:44:45;7.20;99.90
12089;DHT22;6107;49.078;8.578;2024-02-21T07:47:11;7.30;99.90
12089;DHT22;6107;49.078;8.578;2024-02-21T07:49:45;7.40;99.90
12089;DHT22;6107;49.078;8.578;2024-02-21T07:52:11;7.50;99.90
12089;DHT22;6107;49.078;8.578;2024-02-21T07:54:37;7.60;99.90
12089;DHT22;6107;49.078;8.578;2024-02-21T07:57:03;7.60;99.90
12089;DHT22;6107;49.078;8.578;2024-02-21T07:59:29;7.80;99.90
12089;DHT22;6107;49.078;8.578;2024-02-21T08:01:58;7.80;99.90
12089;DHT22;6107;49.078;8.578;2024-02-21T08:04:24;7.90;99.90
12089;DHT22;6107;49.078;8.578;2024-02-21T08:06:54;7.80;99.90
12089;DHT22;6107;49.078;8.578;2024-02-21T08:09:24;7.80;99.90
12089;DHT22;6107;49.078;8.578;2024-02-21T08:11:49;7.90;99.90
12089;DHT22;6107;49.078;8.578;2024-02-21T08:14:15;7.80;99.90
12089;DHT22;6107;49.078;8.578;2024-02-21T08:16:42;7.90;99.90
12089;DHT22;6107;49.078;8.578;2024-02-21T08:19:08;8.10;99.90
12089;DHT22;6107;49.078;8.578;2024-02-21T08:21:33;8.20;99.90
12089;DHT22;6107;49.078;8.578;2024-02-21T08:23:59;8.10;99.90
12089;DHT22;6107;49.078;8.578;2024-02-21T08:26:25;8.00;99.90
12089;DHT22;6107;49.078;8.578;2024-02-21T08:28:53;8.10;99.90
12089;DHT22;6107;49.078;8.578;2024-02-21T08:31:19;8.10;99.90
12089;DHT22;6107;49.078;8.578;2024-02-21T08:33:45;8.10;99.90
12089;DHT22;6107;49.078;8.578;2024-02-21T08:36:19;8.10;99.90
12089;DHT22;6107;49.078;8.578;2024-02-21T08:38:45;8.20;99.90
12089;DHT22;6107;49.078;8.578;2024-02-21T08:41:11;8.30;99.90
12089;DHT22;6107;49.078;8.578;2024-02-21T08:43:36;8.30;99.90
12089;DHT22;6107;49.078;8.578;2024-02-21T08:46:02;8.40;99.90
12089;DHT22;6107;49.078;8.578;2024-02-21T08:48:28;8.20;99.90
12089;DHT22;6107;49.078;8.578;2024-02-21T08:50:53;8.20;99.90
12089;DHT22;6107;49.078;8.578;2024-02-21T08:53:20;8.20;99.90
12089;DHT22;6107;49.078;8.578;2024-02-21T08:55:45;8.20;99.90
12089;DHT22;6107;49.078;8.578;2024-02-21T08:58:11;8.40;99.90
12089;DHT22;6107;49.078;8.578;2024-02-21T09:00:37;8.50;99.90
12089;DHT22;6107;49.078;8.578;2024-02-21T09:03:03;8.30;99.90
12089;DHT22;6107;49.078;8.578;2024-02-21T09:05:28;8.30;99.90
12089;DHT22;6107;49.078;8.578;2024-02-21T09:07:54;8.40;99.90
12089;DHT22;6107;49.078;8.578;2024-02-21T09:10:20;8.70;99.90
12089;DHT22;6107;49.078;8.578;2024-02-21T09:12:46;8.70;99.90
12089;DHT22;6107;49.078;8.578;2024-02-21T09:15:13;8.70;99.90
12089;DHT22;6107;49.078;8.578;2024-02-21T09:17:38;8.90;99.90
12089;DHT22;6107;49.078;8.578;2024-02-21T09:20:05;8.80;99.90
12089;DHT22;6107;49.078;8.578;2024-02-21T09:22:31;8.80;99.90
12089;DHT22;6107;49.078;8.578;2024-02-21T09:25:00;8.80;99.90
12089;DHT22;6107;49.078;8.578;2024-02-21T09:27:26;9.10;99.90
12089;DHT22;6107;49.078;8.578;2024-02-21T09:29:51;9.20;99.90
12089;DHT22;6107;49.078;8.578;2024-02-21T09:32:20;9.30;99.90
12089;DHT22;6107;49.078;8.578;2024-02-21T09:34:46;9.50;99.90
12089;DHT22;6107;49.078;8.578;2024-02-21T09:37:11;9.70;99.90
12089;DHT22;6107;49.078;8.578;2024-02-21T09:39:37;9.80;99.90
12089;DHT22;6107;49.078;8.578;2024-02-21T09:42:05;10.00;99.90
12089;DHT22;6107;49.078;8.578;2024-02-21T09:44:38;9.90;99.90
12089;DHT22;6107;49.078;8.578;2024-02-21T09:47:07;9.90;99.90
12089;DHT22;6107;49.078;8.578;2024-02-21T09:49:35;9.60;99.90
12089;DHT22;6107;49.078;8.578;2024-02-21T09:52:07;10.10;99.90
12089;DHT22;6107;49.078;8.578;2024-02-21T09:54:36;10.10;99.90
12089;DHT22;6107;49.078;8.578;2024-02-21T09:57:02;10.30;99.90
12089;DHT22;6107;49.078;8.578;2024-02-21T09:59:30;10.30;99.90
12089;DHT22;6107;49.078;8.578;2024-02-21T10:01:56;10.00;99.90
12089;DHT22;6107;49.078;8.578;2024-02-21T10:04:21;10.30;99.90
12089;DHT22;6107;49.078;8.578;2024-02-21T10:06:47;10.30;99.90
12089;DHT22;6107;49.078;8.578;2024-02-21T10:09:26;10.30;99.90
12089;DHT22;6107;49.078;8.578;2024-02-21T10:11:56;10.50;99.90
12089;DHT22;6107;49.078;8.578;2024-02-21T10:14:32;10.70;99.90
12089;DHT22;6107;49.078;8.578;2024-02-21T10:16:58;10.70;99.90
12089;DHT22;6107;49.078;8.578;2024-02-21T10:19:24;10.80;99.90
12089;DHT22;6107;49.078;8.578;2024-02-21T10:22:09;10.90;99.90
12089;DHT22;6107;49.078;8.578;2024-02-21T10:24:36;11.20;99.90
12089;DHT22;6107;49.078;8.578;2024-02-21T10:27:07;11.00;99.90
12089;DHT22;6107;49.078;8.578;2024-02-21T10:29:37;10.80;99.90
12089;DHT22;6107;49.078;8.578;2024-02-21T10:32:13;10.90;99.90
12089;DHT22;6107;49.078;8.578;2024-02-21T10:34:40;10.90;99.90
12089;DHT22;6107;49.078;8.578;2024-02-21T10:37:08;10.90;99.90
12089;DHT22;6107;49.078;8.578;2024-02-21T10:39:35;11.10;99.90
12089;DHT22;6107;49.078;8.578;2024-02-21T10:42:02;11.20;99.90
12089;DHT22;6107;49.078;8.578;2024-02-21T10:44:33;11.00;99.90
12089;DHT22;6107;49.078;8.578;2024-02-21T10:46:59;11.00;99.90
12089;DHT22;6107;49.078;8.578;2024-02-21T10:49:27;11.10;99.90
12089;DHT22;6107;49.078;8.578;2024-02-21T10:55:03;11.10;99.90
12089;DHT22;6107;49.078;8.578;2024-02-21T10:57:29;11.10;99.90
12089;DHT22;6107;49.078;8.578;2024-02-21T10:59:59;10.90;99.90
12089;DHT22;6107;49.078;8.578;2024-02-21T11:02:26;11.00;99.90
12089;DHT22;6107;49.078;8.578;2024-02-21T11:04:54;10.90;99.90
12089;DHT22;6107;49.078;8.578;2024-02-21T11:07:20;10.90;99.90
12089;DHT22;6107;49.078;8.578;2024-02-21T11:09:53;10.90;99.90
12089;DHT22;6107;49.078;8.578;2024-02-21T11:12:21;11.00;99.90
12089;DHT22;6107;49.078;8.578;2024-02-21T11:14:47;11.20;99.90
12089;DHT22;6107;49.078;8.578;2024-02-21T11:17:17;11.10;99.90
12089;DHT22;6107;49.078;8.578;2024-02-21T11:19:43;11.20;99.90
12089;DHT22;6107;49.078;8.578;2024-02-21T11:22:19;11.10;99.90
12089;DHT22;6107;49.078;8.578;2024-02-21T11:24:46;10.90;99.90
12089;DHT22;6107;49.078;8.578;2024-02-21T11:29:46;11.30;99.90
12089;DHT22;6107;49.078;8.578;2024-02-21T11:32:17;11.70;99.90
12089;DHT22;6107;49.078;8.578;2024-02-21T11:35:00;11.60;99.90
12089;DHT22;6107;49.078;8.578;2024-02-21T11:37:28;11.70;99.90
12089;DHT22;6107;49.078;8.578;2024-02-21T11:39:57;11.90;99.90
12089;DHT22;6107;49.078;8.578;2024-02-21T11:42:25;12.10;99.90
12089;DHT22;6107;49.078;8.578;2024-02-21T11:44:52;12.00;99.90
12089;DHT22;6107;49.078;8.578;2024-02-21T11:47:18;12.00;99.90
12089;DHT22;6107;49.078;8.578;2024-02-21T11:49:48;12.00;99.90
12089;DHT22;6107;49.078;8.578;2024-02-21T11:52:21;12.30;99.90
12089;DHT22;6107;49.078;8.578;2024-02-21T11:54:50;12.10;99.90
12089;DHT22;6107;49.078;8.578;2024-02-21T11:57:17;11.90;99.90
12089;DHT22;6107;49.078;8.578;2024-02-21T11:59:44;11.70;99.90
12089;DHT22;6107;49.078;8.578;2024-02-21T12:02:10;11.90;99.90
12089;DHT22;6107;49.078;8.578;2024-02-21T12:04:37;11.70;99.90
12089;DHT22;6107;49.078;8.578;2024-02-21T12:07:04;11.60;99.90
12089;DHT22;6107;49.078;8.578;2024-02-21T12:09:30;11.70;99.90
12089;DHT22;6107;49.078;8.578;2024-02-21T12:12:05;11.70;99.90
12089;DHT22;6107;49.078;8.578;2024-02-21T12:14:32;11.90;99.90
12089;DHT22;6107;49.078;8.578;2024-02-21T12:16:59;11.90;99.90
12089;DHT22;6107;49.078;8.578;2024-02-21T12:19:26;12.00;99.90
12089;DHT22;6107;49.078;8.578;2024-02-21T12:21:54;12.10;99.90
12089;DHT22;6107;49.078;8.578;2024-02-21T12:24:27;11.90;99.90
12089;DHT22;6107;49.078;8.578;2024-02-21T12:26:54;12.00;99.90
12089;DHT22;6107;49.078;8.578;2024-02-21T12:29:20;12.30;99.90
12089;DHT22;6107;49.078;8.578;2024-02-21T12:31:47;12.30;99.90
12089;DHT22;6107;49.078;8.578;2024-02-21T12:34:13;12.40;99.90
12089;DHT22;6107;49.078;8.578;2024-02-21T12:36:43;12.20;99.90
12089;DHT22;6107;49.078;8.578;2024-02-21T12:39:09;12.00;99.90
12089;DHT22;6107;49.078;8.578;2024-02-21T12:41:36;12.10;99.90
12089;DHT22;6107;49.078;8.578;2024-02-21T12:44:04;12.30;99.90
12089;DHT22;6107;49.078;8.578;2024-02-21T12:46:35;12.30;99.90
12089;DHT22;6107;49.078;8.578;2024-02-21T12:49:04;11.90;99.90
12089;DHT22;6107;49.078;8.578;2024-02-21T12:51:31;12.00;99.90
12089;DHT22;6107;49.078;8.578;2024-02-21T12:53:56;12.00;99.90
12089;DHT22;6107;49.078;8.578;2024-02-21T12:56:22;12.10;99.90
12089;DHT22;6107;49.078;8.578;2024-02-21T12:58:49;12.10;99.90
12089;DHT22;6107;49.078;8.578;2024-02-21T13:01:15;12.00;99.90
12089;DHT22;6107;49.078;8.578;2024-02-21T13:03:41;12.20;99.90
12089;DHT22;6107;49.078;8.578;2024-02-21T13:06:06;12.00;99.90
12089;DHT22;6107;49.078;8.578;2024-02-21T13:08:36;11.90;99.90
12089;DHT22;6107;49.078;8.578;2024-02-21T13:11:01;12.00;99.90
12089;DHT22;6107;49.078;8.578;2024-02-21T13:13:27;11.80;99.90
12089;DHT22;6107;49.078;8.578;2024-02-21T13:15:53;11.90;99.90
12089;DHT22;6107;49.078;8.578;2024-02-21T13:18:18;12.10;99.90
12089;DHT22;6107;49.078;8.578;2024-02-21T13:20:44;12.10;99.90
12089;DHT22;6107;49.078;8.578;2024-02-21T13:23:10;12.00;99.90
12089;DHT22;6107;49.078;8.578;2024-02-21T13:25:35;12.10;99.90
12089;DHT22;6107;49.078;8.578;2024-02-21T13:28:01;12.20;99.90
12089;DHT22;6107;49.078;8.578;2024-02-21T13:30:28;12.20;99.90
12089;DHT22;6107;49.078;8.578;2024-02-21T13:32:54;12.20;99.90
12089;DHT22;6107;49.078;8.578;2024-02-21T13:35:20;12.20;99.90
12089;DHT22;6107;49.078;8.578;2024-02-21T13:37:46;12.20;99.90
12089;DHT22;6107;49.078;8.578;2024-02-21T13:40:11;11.90;99.90
12089;DHT22;6107;49.078;8.578;2024-02-21T13:42:39;12.10;99.90
12089;DHT22;6107;49.078;8.578;2024-02-21T13:45:06;11.90;99.90
12089;DHT22;6107;49.078;8.578;2024-02-21T13:47:32;11.90;99.90
12089;DHT22;6107;49.078;8.578;2024-02-21T13:49:58;11.90;99.90
12089;DHT22;6107;49.078;8.578;2024-02-21T13:52:24;12.00;99.90
12089;DHT22;6107;49.078;8.578;2024-02-21T13:54:52;11.80;99.90
12089;DHT22;6107;49.078;8.578;2024-02-21T13:57:17;11.80;99.90
12089;DHT22;6107;49.078;8.578;2024-02-21T13:59:43;12.00;99.90
12089;DHT22;6107;49.078;8.578;2024-02-21T14:02:09;11.80;99.90
12089;DHT22;6107;49.078;8.578;2024-02-21T14:04:35;11.80;99.90
12089;DHT22;6107;49.078;8.578;2024-02-21T14:07:01;12.10;99.90
12089;DHT22;6107;49.078;8.578;2024-02-21T14:09:27;12.10;99.90
12089;DHT22;6107;49.078;8.578;2024-02-21T14:11:55;11.90;99.90
12089;DHT22;6107;49.078;8.578;2024-02-21T14:14:20;12.00;99.90
12089;DHT22;6107;49.078;8.578;2024-02-21T14:16:46;12.00;99.90
12089;DHT22;6107;49.078;8.578;2024-02-21T14:19:13;11.90;99.90
12089;DHT22;6107;49.078;8.578;2024-02-21T14:21:39;11.70;99.90
12089;DHT22;6107;49.078;8.578;2024-02-21T14:24:05;11.90;99.90
12089;DHT22;6107;49.078;8.578;2024-02-21T14:26:31;11.90;99.90
12089;DHT22;6107;49.078;8.578;2024-02-21T14:29:00;11.90;99.90
12089;DHT22;6107;49.078;8.578;2024-02-21T14:31:25;11.90;99.90
12089;DHT22;6107;49.078;8.578;2024-02-21T14:33:51;12.00;99.90
12089;DHT22;6107;49.078;8.578;2024-02-21T14:36:17;12.00;99.90
12089;DHT22;6107;49.078;8.578;2024-02-21T14:38:43;12.20;99.90
12089;DHT22;6107;49.078;8.578;2024-02-21T14:41:10;12.30;99.90
12089;DHT22;6107;49.078;8.578;2024-02-21T14:43:38;12.40;99.90
12089;DHT22;6107;49.078;8.578;2024-02-21T14:46:04;12.50;99.90
12089;DHT22;6107;49.078;8.578;2024-02-21T14:48:31;12.20;99.90
12089;DHT22;6107;49.078;8.578;2024-02-21T14:50:58;12.30;99.90
12089;DHT22;6107;49.078;8.578;2024-02-21T14:53:24;12.30;99.90
12089;DHT22;6107;49.078;8.578;2024-02-21T14:55:50;12.40;99.90
12089;DHT22;6107;49.078;8.578;2024-02-21T14:58:16;12.30;99.90
12089;DHT22;6107;49.078;8.578;2024-02-21T15:00:43;12.40;99.90
12089;DHT22;6107;49.078;8.578;2024-02-21T15:03:09;12.50;99.90
12089;DHT22;6107;49.078;8.578;2024-02-21T15:05:36;12.40;99.90
12089;DHT22;6107;49.078;8.578;2024-02-21T15:08:03;12.40;99.90
12089;DHT22;6107;49.078;8.578;2024-02-21T15:10:29;12.30;99.90
12089;DHT22;6107;49.078;8.578;2024-02-21T15:12:54;12.20;99.90
12089;DHT22;6107;49.078;8.578;2024-02-21T15:15:20;12.20;99.90
12089;DHT22;6107;49.078;8.578;2024-02-21T15:17:45;12.30;99.90
12089;DHT22;6107;49.078;8.578;2024-02-21T15:20:11;12.20;99.90
12089;DHT22;6107;49.078;8.578;2024-02-21T15:22:37;12.20;99.90
12089;DHT22;6107;49.078;8.578;2024-02-21T15:25:03;12.20;99.90
12089;DHT22;6107;49.078;8.578;2024-02-21T15:27:31;12.20;99.90
12089;DHT22;6107;49.078;8.578;2024-02-21T15:29:57;12.30;99.90
12089;DHT22;6107;49.078;8.578;2024-02-21T15:32:23;12.20;99.90
12089;DHT22;6107;49.078;8.578;2024-02-21T15:34:49;12.10;99.90
12089;DHT22;6107;49.078;8.578;2024-02-21T15:37:14;12.20;99.90
12089;DHT22;6107;49.078;8.578;2024-02-21T15:39:41;12.20;99.90
12089;DHT22;6107;49.078;8.578;2024-02-21T15:42:08;12.00;99.90
12089;DHT22;6107;49.078;8.578;2024-02-21T15:44:34;12.00;99.90
12089;DHT22;6107;49.078;8.578;2024-02-21T15:47:00;12.10;99.90
12089;DHT22;6107;49.078;8.578;2024-02-21T15:49:25;11.90;99.90
12089;DHT22;6107;49.078;8.578;2024-02-21T15:51:51;11.80;99.90
12089;DHT22;6107;49.078;8.578;2024-02-21T15:54:17;11.70;99.90
12089;DHT22;6107;49.078;8.578;2024-02-21T15:56:43;11.70;99.90
12089;DHT22;6107;49.078;8.578;2024-02-21T15:59:09;11.60;99.90